YDT weather

Boundary Bay Airport
Vancouver, British Columbia, Canada

Public forecast

Using degrees Celsius for public forecast. Weather courtesy of forecast.io.

METAR (pilot weather report)

Closest report is Vancouver International Airport, 9.9 nm (18.3 km) NW. Retrieved 2019/05/20 04:00 UTC (45 minutes ago):

CYVR 200400Z 16004KT 130V210 30SM FEW150 SCT230 17/09 A2968 RMK AC1CI2 SLP053 DENSITY ALT 500FT

TAF (pilot weather forecast)

Closest forecast is Vancouver International Airport, 9.9 nm (18.3 km) NW. Retrieved 2019/05/20 03:41 UTC (1 hour ago):

TAF CYVR 200238Z 2003/2106 22005KT P6SM FEW040 FEW150 BKN210 BECMG 2004/2006 09010KT FM201200 09012G22KT P6SM SCT030 BKN100 FM201600 09012KT P6SM BKN030 OVC050 TEMPO 2016/2020 P6SM -SHRA BKN020 OVC040 FM202000 15012KT P6SM -RA FEW007 SCT020 OVC040 TEMPO 2020/2103 6SM -SHRA BR FEW007 BKN020 OVC040 FM210300 08005KT P6SM SCT020 BKN040 TEMPO 2103/2106 P6SM -SHRA BKN020 BKN040 RMK NXT FCST BY 200600Z